createdAt,value
2019-04-05T00:02:20.167Z,9.90
2019-04-05T00:04:52.217Z,9.90
2019-04-05T00:07:22.745Z,9.90
2019-04-05T00:09:53.497Z,9.80
2019-04-05T00:12:23.931Z,9.80
2019-04-05T00:14:54.430Z,9.80
2019-04-05T00:17:24.881Z,9.80
2019-04-05T00:22:24.917Z,9.70
2019-04-05T00:24:55.509Z,9.70
2019-04-05T00:27:25.975Z,9.60
2019-04-05T00:29:56.419Z,9.60
2019-04-05T00:32:26.836Z,9.60
2019-04-05T00:34:57.287Z,9.50
2019-04-05T00:37:27.819Z,9.50
2019-04-05T00:39:58.191Z,9.50
2019-04-05T00:42:28.597Z,9.50
2019-04-05T00:44:59.177Z,9.40
2019-04-05T00:47:30.407Z,9.40
2019-04-05T00:50:01.032Z,9.40
2019-04-05T00:52:31.561Z,9.40
2019-04-05T00:55:02.030Z,9.30
2019-04-05T00:57:32.535Z,9.30
2019-04-05T01:00:04.245Z,9.30
2019-04-05T01:02:34.972Z,9.20
2019-04-05T01:05:05.901Z,9.20
2019-04-05T01:07:36.828Z,9.20
2019-04-05T01:10:08.003Z,9.20
2019-04-05T01:12:39.596Z,9.20
2019-04-05T01:15:13.743Z,9.20
2019-04-05T01:17:44.102Z,9.10
2019-04-05T01:20:15.031Z,9.10
2019-04-05T01:22:48.036Z,9.10
2019-04-05T01:25:20.419Z,9.10
2019-04-05T01:27:51.555Z,9.20
2019-04-05T01:30:22.023Z,9.10
2019-04-05T01:32:52.623Z,9.10
2019-04-05T01:35:22.973Z,9.10
2019-04-05T01:37:53.961Z,9.10
2019-04-05T01:40:26.336Z,9.10
2019-04-05T01:42:57.427Z,9.10
2019-04-05T01:45:28.040Z,9.10
2019-04-05T01:47:58.562Z,9.00
2019-04-05T01:50:29.751Z,9.00
2019-04-05T01:53:00.772Z,9.00
2019-04-05T01:55:31.277Z,9.00
2019-04-05T01:58:01.671Z,9.00
2019-04-05T02:00:32.120Z,9.00
2019-04-05T02:03:02.728Z,9.00
2019-04-05T02:05:33.625Z,9.00
2019-04-05T02:08:05.539Z,9.00
2019-04-05T02:10:36.476Z,9.00
2019-04-05T02:13:06.965Z,8.90
2019-04-05T02:15:38.476Z,9.00
2019-04-05T02:18:09.294Z,8.90
2019-04-05T02:20:39.691Z,8.90
2019-04-05T02:23:10.232Z,8.90
2019-04-05T02:25:40.799Z,8.80
2019-04-05T02:28:11.290Z,8.80
2019-04-05T02:30:41.745Z,8.80
2019-04-05T02:33:12.133Z,8.80
2019-04-05T02:35:42.543Z,8.70
2019-04-05T02:38:13.782Z,8.70
2019-04-05T02:40:45.458Z,8.70
2019-04-05T02:43:19.453Z,8.70
2019-04-05T02:45:52.427Z,8.60
2019-04-05T02:48:23.943Z,8.60
2019-04-05T02:50:58.002Z,8.60
2019-04-05T02:53:29.226Z,8.50
2019-04-05T02:56:03.223Z,8.50
2019-04-05T02:58:34.818Z,8.50
2019-04-05T03:01:05.279Z,8.50
2019-04-05T03:03:36.003Z,8.40
2019-04-05T03:06:08.892Z,8.40
2019-04-05T03:08:42.050Z,8.40
2019-04-05T03:11:14.948Z,8.40
2019-04-05T03:13:49.339Z,8.30
2019-04-05T03:16:39.504Z,8.30
2019-04-05T03:19:05.213Z,8.30
2019-04-05T03:21:39.026Z,8.20
2019-04-05T03:24:12.876Z,8.20
2019-04-05T03:26:47.218Z,8.20
2019-04-05T03:29:17.827Z,8.20
2019-04-05T03:31:48.898Z,8.10
2019-04-05T03:34:20.356Z,8.10
2019-04-05T03:36:52.101Z,8.10
2019-04-05T03:39:24.214Z,8.10
2019-04-05T03:41:55.685Z,8.10
2019-04-05T03:44:27.111Z,8.10
2019-04-05T03:46:58.267Z,8.10
2019-04-05T03:49:30.343Z,8.00
2019-04-05T03:52:01.440Z,8.00
2019-04-05T03:54:31.867Z,8.00
2019-04-05T03:57:02.905Z,8.00
2019-04-05T03:59:34.848Z,8.00
2019-04-05T04:02:05.741Z,8.00
2019-04-05T04:04:37.213Z,8.00
2019-04-05T04:07:08.074Z,8.00
2019-04-05T04:09:38.508Z,7.90
2019-04-05T04:12:09.284Z,8.00
2019-04-05T04:14:40.519Z,8.00
2019-04-05T04:17:13.120Z,7.90
2019-04-05T04:19:44.684Z,8.00
2019-04-05T04:22:27.685Z,8.00
2019-04-05T04:25:00.432Z,7.90
2019-04-05T04:27:31.369Z,8.00
2019-04-05T04:30:02.135Z,8.00
2019-04-05T04:32:33.250Z,8.10
2019-04-05T04:35:04.491Z,8.10
2019-04-05T04:37:35.490Z,8.10
2019-04-05T04:40:07.121Z,8.20
2019-04-05T04:42:38.049Z,8.20
2019-04-05T04:45:12.398Z,8.30
2019-04-05T04:47:41.289Z,8.40
2019-04-05T04:50:12.922Z,8.40
2019-04-05T04:52:44.458Z,8.50
2019-04-05T04:55:15.081Z,8.60
2019-04-05T04:57:45.674Z,8.70
2019-04-05T05:00:16.813Z,8.70
2019-04-05T05:02:49.024Z,8.90
2019-04-05T05:05:20.247Z,8.90
2019-04-05T05:07:51.439Z,9.00
2019-04-05T05:10:23.058Z,9.10
2019-04-05T05:12:55.062Z,9.10
2019-04-05T05:15:27.349Z,9.20
2019-04-05T05:17:59.021Z,9.20
2019-04-05T05:20:30.290Z,9.40
2019-04-05T05:23:01.356Z,9.30
2019-04-05T05:25:32.300Z,9.40
2019-04-05T05:28:03.022Z,9.60
2019-04-05T05:30:34.127Z,9.70
2019-04-05T05:33:05.152Z,9.80
2019-04-05T05:35:36.169Z,9.80
2019-04-05T05:38:07.060Z,10.00
2019-04-05T05:40:38.064Z,10.00
2019-04-05T05:43:08.490Z,10.00
2019-04-05T05:45:39.323Z,10.10
2019-04-05T05:48:10.473Z,10.00
2019-04-05T05:50:41.746Z,10.20
2019-04-05T05:53:12.724Z,10.30
2019-04-05T05:55:43.103Z,10.40
2019-04-05T05:58:13.717Z,10.60
2019-04-05T06:00:44.069Z,10.70
2019-04-05T06:03:16.757Z,10.50
2019-04-05T06:05:47.329Z,10.60
2019-04-05T06:08:17.738Z,10.60
2019-04-05T06:10:48.166Z,10.70
2019-04-05T06:13:18.624Z,10.70
2019-04-05T06:15:49.179Z,11.00
2019-04-05T06:18:21.144Z,10.90
2019-04-05T06:20:51.542Z,11.10
2019-04-05T06:23:33.510Z,11.00
2019-04-05T06:25:55.744Z,11.20
2019-04-05T06:28:26.342Z,11.40
2019-04-05T06:30:57.120Z,11.60
2019-04-05T06:33:31.864Z,11.50
2019-04-05T06:36:00.738Z,11.60
2019-04-05T06:38:31.318Z,11.70
2019-04-05T06:41:01.848Z,12.10
2019-04-05T06:43:32.580Z,12.10
2019-04-05T06:46:03.064Z,12.50
2019-04-05T06:48:33.950Z,12.50
2019-04-05T06:51:04.689Z,12.30
2019-04-05T06:53:35.130Z,12.70
2019-04-05T06:56:05.715Z,12.90
2019-04-05T06:58:36.527Z,12.70
2019-04-05T07:01:08.738Z,12.80
2019-04-05T07:03:39.228Z,12.80
2019-04-05T07:06:10.035Z,12.70
2019-04-05T07:08:52.807Z,12.60
2019-04-05T07:11:12.490Z,12.80
2019-04-05T07:13:42.929Z,13.00
2019-04-05T07:16:13.506Z,13.40
2019-04-05T07:18:44.290Z,13.70
2019-04-05T07:21:17.500Z,13.50
2019-04-05T07:23:49.233Z,13.40
2019-04-05T07:26:21.076Z,13.40
2019-04-05T07:28:51.708Z,13.40
2019-04-05T07:31:22.105Z,13.30
2019-04-05T07:33:52.927Z,13.50
2019-04-05T07:36:23.445Z,13.70
2019-04-05T07:38:53.968Z,14.20
2019-04-05T07:41:24.372Z,14.20
2019-04-05T07:43:54.773Z,14.70
2019-04-05T07:46:25.178Z,14.30
2019-04-05T07:48:55.695Z,14.20
2019-04-05T07:51:26.098Z,14.50
2019-04-05T07:53:56.611Z,14.50
2019-04-05T07:56:27.350Z,14.90
2019-04-05T07:58:57.782Z,15.00
2019-04-05T08:01:28.313Z,14.90
2019-04-05T08:03:58.741Z,14.80
2019-04-05T08:06:29.703Z,15.00
2019-04-05T08:09:12.727Z,15.30
2019-04-05T08:11:45.714Z,15.00
2019-04-05T08:14:19.544Z,15.10
2019-04-05T08:16:50.256Z,15.10
2019-04-05T08:19:21.047Z,15.30
2019-04-05T08:21:51.804Z,15.50
2019-04-05T08:24:22.275Z,16.00
2019-04-05T08:26:54.172Z,16.00
2019-04-05T08:29:24.712Z,16.60
2019-04-05T08:31:55.241Z,16.70
2019-04-05T08:34:25.852Z,16.80
2019-04-05T08:36:56.537Z,16.80
2019-04-05T08:39:27.118Z,16.50
2019-04-05T08:41:57.585Z,16.20
2019-04-05T08:44:29.784Z,16.60
2019-04-05T08:47:00.703Z,16.70
2019-04-05T08:49:31.437Z,16.90
2019-04-05T08:52:02.004Z,16.70
2019-04-05T08:54:36.341Z,17.00
2019-04-05T08:57:07.122Z,17.70
2019-04-05T08:59:39.219Z,16.90
2019-04-05T09:02:11.864Z,17.60
2019-04-05T09:04:42.333Z,18.20
2019-04-05T09:07:12.815Z,18.80
2019-04-05T09:09:44.887Z,18.70
2019-04-05T09:12:15.956Z,19.20
2019-04-05T09:14:46.606Z,19.00
2019-04-05T09:17:17.096Z,19.30
2019-04-05T09:19:47.575Z,19.50
2019-04-05T09:22:18.266Z,19.80
2019-04-05T09:24:48.698Z,19.90
2019-04-05T09:27:19.501Z,19.30
2019-04-05T09:29:50.223Z,19.40
2019-04-05T09:32:21.012Z,19.90
2019-04-05T09:34:51.420Z,19.80
2019-04-05T09:37:22.132Z,19.50
2019-04-05T09:39:53.029Z,18.90
2019-04-05T09:42:23.426Z,19.40
2019-04-05T09:44:54.233Z,19.80
2019-04-05T09:47:24.866Z,19.90
2019-04-05T09:49:55.526Z,20.60
2019-04-05T09:52:26.038Z,20.80
2019-04-05T09:54:56.567Z,20.40
2019-04-05T09:57:26.942Z,20.70
2019-04-05T09:59:57.394Z,20.90
2019-04-05T10:02:28.092Z,20.70
2019-04-05T10:04:58.717Z,20.80
2019-04-05T10:07:30.887Z,20.20
2019-04-05T10:10:01.742Z,20.00
2019-04-05T10:12:33.514Z,20.00
2019-04-05T10:15:04.324Z,20.80
2019-04-05T10:17:34.759Z,20.70
2019-04-05T10:20:06.352Z,20.50
2019-04-05T10:22:36.761Z,20.50
2019-04-05T10:25:07.559Z,20.50
2019-04-05T10:27:38.116Z,20.50
2019-04-05T10:30:10.563Z,20.90
2019-04-05T10:32:41.133Z,21.40
2019-04-05T10:35:11.594Z,21.00
2019-04-05T10:37:42.208Z,21.00
2019-04-05T10:40:14.425Z,21.50
2019-04-05T10:42:45.016Z,21.40
2019-04-05T10:45:16.488Z,21.10
2019-04-05T10:47:46.924Z,21.20
2019-04-05T10:50:18.030Z,20.90
2019-04-05T10:52:48.430Z,21.40
2019-04-05T10:55:18.865Z,20.70
2019-04-05T10:57:49.256Z,20.20
2019-04-05T11:00:20.850Z,19.90
2019-04-05T11:02:51.183Z,19.90
2019-04-05T11:05:21.572Z,20.30
2019-04-05T11:07:52.022Z,20.50
2019-04-05T11:10:24.271Z,20.50
2019-04-05T11:12:54.761Z,20.40
2019-04-05T11:15:25.289Z,20.80
2019-04-05T11:17:55.733Z,21.00
2019-04-05T11:20:26.571Z,20.70
2019-04-05T11:22:56.998Z,21.60
2019-04-05T11:25:27.664Z,21.10
2019-04-05T11:27:58.225Z,21.10
2019-04-05T11:30:45.863Z,21.00
2019-04-05T11:33:19.737Z,20.70
2019-04-05T11:35:50.086Z,20.50
2019-04-05T11:38:20.876Z,20.50
2019-04-05T11:40:52.313Z,20.70
2019-04-05T11:43:26.975Z,20.70
2019-04-05T11:45:58.064Z,20.90
2019-04-05T11:48:30.957Z,20.90
2019-04-05T11:51:01.881Z,21.20
2019-04-05T11:53:32.699Z,21.90
2019-04-05T11:56:13.977Z,22.20
2019-04-05T11:58:35.321Z,22.00
2019-04-05T12:01:26.990Z,22.40
2019-04-05T12:03:57.763Z,22.20
2019-04-05T12:06:28.489Z,21.80
2019-04-05T12:08:59.375Z,21.70
2019-04-05T12:11:31.755Z,22.00
2019-04-05T12:14:02.111Z,21.60
2019-04-05T12:16:36.041Z,21.80
2019-04-05T12:19:05.471Z,21.40
2019-04-05T12:21:36.113Z,21.10
2019-04-05T12:24:06.542Z,20.80
2019-04-05T12:26:37.039Z,21.00
2019-04-05T12:29:08.022Z,20.90
2019-04-05T12:31:39.049Z,21.20
2019-04-05T12:34:09.445Z,21.20
2019-04-05T12:36:39.831Z,21.20
2019-04-05T12:39:10.468Z,21.20
2019-04-05T12:41:41.819Z,21.30
2019-04-05T12:44:15.261Z,20.70
2019-04-05T12:46:45.935Z,20.10
2019-04-05T12:49:17.209Z,19.50
2019-04-05T12:51:48.735Z,19.50
2019-04-05T12:54:19.469Z,19.40
2019-04-05T12:56:49.935Z,19.40
2019-04-05T12:59:25.119Z,19.50
2019-04-05T13:01:54.430Z,19.40
2019-04-05T13:04:25.447Z,19.30
2019-04-05T13:06:56.023Z,19.40
2019-04-05T13:09:27.025Z,19.40
2019-04-05T13:11:57.813Z,19.40
2019-04-05T13:14:28.857Z,19.50
2019-04-05T13:17:01.759Z,19.40
2019-04-05T13:19:31.731Z,19.30
2019-04-05T13:22:02.920Z,19.20
2019-04-05T13:24:34.038Z,19.30
2019-04-05T13:27:04.795Z,19.20
2019-04-05T13:29:35.402Z,19.20
2019-04-05T13:32:05.786Z,19.20
2019-04-05T13:34:36.975Z,19.20
2019-04-05T13:37:19.382Z,19.10
2019-04-05T13:39:39.644Z,18.90
2019-04-05T13:42:10.122Z,19.00
2019-04-05T13:44:40.615Z,18.90
2019-04-05T13:47:11.396Z,18.90
2019-04-05T13:49:41.987Z,18.90
2019-04-05T13:52:13.671Z,18.90
2019-04-05T13:54:44.132Z,18.90
2019-04-05T13:57:14.592Z,18.90
2019-04-05T13:59:45.059Z,19.00
2019-04-05T14:02:15.513Z,19.00
2019-04-05T14:04:46.208Z,18.90
2019-04-05T14:07:16.542Z,19.10
2019-04-05T14:09:46.943Z,19.20
2019-04-05T14:12:17.560Z,19.20
2019-04-05T14:14:51.194Z,19.20
2019-04-05T14:17:20.055Z,19.00
2019-04-05T14:19:50.524Z,18.90
2019-04-05T14:22:22.501Z,19.00
2019-04-05T14:24:56.646Z,19.00
2019-04-05T14:27:26.501Z,19.00
2019-04-05T14:29:57.013Z,19.00
2019-04-05T14:32:27.487Z,19.10
2019-04-05T14:34:57.863Z,19.00
2019-04-05T14:37:28.583Z,19.00
2019-04-05T14:39:59.089Z,18.80
2019-04-05T14:42:31.060Z,18.70
2019-04-05T14:45:02.637Z,18.70
2019-04-05T14:47:33.037Z,18.70
2019-04-05T14:50:03.470Z,18.80
2019-04-05T14:52:34.487Z,18.80
2019-04-05T14:55:06.010Z,18.80
2019-04-05T14:57:36.703Z,18.80
2019-04-05T15:00:09.871Z,18.70
2019-04-05T15:02:40.531Z,18.60
2019-04-05T15:05:11.237Z,18.60
2019-04-05T15:07:41.808Z,18.50
2019-04-05T15:10:12.574Z,18.50
2019-04-05T15:12:43.213Z,18.50
2019-04-05T15:15:14.101Z,18.40
2019-04-05T15:17:50.441Z,18.40
2019-04-05T15:20:21.381Z,18.30
2019-04-05T15:22:51.999Z,18.20
2019-04-05T15:25:22.514Z,18.20
2019-04-05T15:27:55.517Z,18.20
2019-04-05T15:30:26.544Z,18.20
2019-04-05T15:32:59.839Z,18.20
2019-04-05T15:35:30.283Z,18.20
2019-04-05T15:38:02.089Z,18.20
2019-04-05T15:40:32.869Z,18.20
2019-04-05T15:43:03.365Z,18.10
2019-04-05T15:45:33.903Z,18.00
2019-04-05T15:48:04.327Z,18.00
2019-04-05T15:50:34.740Z,17.90
2019-04-05T15:53:06.698Z,17.90
2019-04-05T15:55:37.507Z,17.80
2019-04-05T15:58:08.209Z,17.80
2019-04-05T16:00:43.870Z,17.80
2019-04-05T16:03:15.292Z,17.70
2019-04-05T16:05:46.824Z,17.70
2019-04-05T16:08:19.083Z,17.70
2019-04-05T16:10:50.781Z,17.60
2019-04-05T16:13:21.307Z,17.50
2019-04-05T16:15:52.054Z,17.50
2019-04-05T16:18:22.467Z,17.40
2019-04-05T16:20:52.872Z,17.40
2019-04-05T16:23:23.489Z,17.30
2019-04-05T16:25:54.291Z,17.30
2019-04-05T16:28:25.123Z,17.20
2019-04-05T16:30:55.963Z,17.10
2019-04-05T16:33:26.553Z,17.00
2019-04-05T16:35:57.059Z,17.00
2019-04-05T16:38:27.732Z,17.00
2019-04-05T16:40:58.257Z,16.80
2019-04-05T16:43:29.067Z,16.80
2019-04-05T16:45:59.574Z,16.70
2019-04-05T16:48:30.213Z,16.70
2019-04-05T16:51:00.825Z,16.50
2019-04-05T16:53:31.596Z,16.50
2019-04-05T16:56:02.222Z,16.50
2019-04-05T16:58:33.392Z,16.40
2019-04-05T17:01:04.378Z,16.40
2019-04-05T17:03:34.877Z,16.30
2019-04-05T17:06:05.469Z,16.30
2019-04-05T17:08:36.177Z,16.20
2019-04-05T17:11:06.713Z,16.20
2019-04-05T17:13:37.456Z,16.10
2019-04-05T17:16:07.932Z,16.10
2019-04-05T17:18:38.880Z,16.10
2019-04-05T17:21:09.359Z,16.00
2019-04-05T17:23:40.065Z,15.90
2019-04-05T17:26:10.525Z,15.90
2019-04-05T17:28:41.478Z,15.80
2019-04-05T17:31:12.035Z,15.80
2019-04-05T17:33:42.694Z,15.80
2019-04-05T17:36:13.168Z,15.70
2019-04-05T17:38:43.572Z,15.60
2019-04-05T17:41:13.948Z,15.60
2019-04-05T17:43:44.451Z,15.50
2019-04-05T17:46:16.090Z,15.50
2019-04-05T17:48:46.589Z,15.50
2019-04-05T17:51:17.263Z,15.40
2019-04-05T17:53:49.515Z,15.40
2019-04-05T17:56:20.996Z,15.30
2019-04-05T17:58:51.846Z,15.30
2019-04-05T18:01:22.276Z,15.20
2019-04-05T18:03:52.835Z,15.20
2019-04-05T18:06:23.448Z,15.10
2019-04-05T18:08:53.815Z,15.00
2019-04-05T18:11:24.174Z,15.00
2019-04-05T18:13:54.899Z,14.90
2019-04-05T18:16:25.327Z,14.80
2019-04-05T18:18:56.877Z,14.80
2019-04-05T18:21:27.620Z,14.80
2019-04-05T18:23:58.009Z,14.60
2019-04-05T18:26:29.528Z,14.70
2019-04-05T18:29:00.659Z,14.60
2019-04-05T18:31:31.557Z,14.50
2019-04-05T18:34:01.979Z,14.50
2019-04-05T18:36:33.709Z,14.50
2019-04-05T18:39:06.158Z,14.50
2019-04-05T18:41:37.647Z,14.40
2019-04-05T18:44:07.970Z,14.40
2019-04-05T18:46:39.658Z,14.40
2019-04-05T18:49:10.104Z,14.30
2019-04-05T18:51:40.538Z,14.30
2019-04-05T18:54:10.990Z,14.20
2019-04-05T18:56:41.620Z,14.20
2019-04-05T18:59:11.970Z,14.10
2019-04-05T19:01:42.749Z,14.10
2019-04-05T19:04:13.115Z,14.10
2019-04-05T19:06:43.483Z,14.00
2019-04-05T19:09:13.959Z,14.00
2019-04-05T19:11:44.494Z,13.90
2019-04-05T19:14:16.062Z,13.90
2019-04-05T19:16:46.637Z,13.90
2019-04-05T19:19:17.928Z,13.80
2019-04-05T19:21:48.800Z,13.80
2019-04-05T19:24:19.340Z,13.70
2019-04-05T19:26:50.805Z,13.60
2019-04-05T19:29:21.170Z,13.60
2019-04-05T19:49:35.808Z,13.20
2019-04-05T19:52:06.444Z,13.10
2019-04-05T19:54:36.866Z,13.10
2019-04-05T19:57:07.258Z,13.00
2019-04-05T19:59:37.736Z,13.00
2019-04-05T20:02:08.296Z,12.90
2019-04-05T20:04:38.756Z,12.90
2019-04-05T20:07:09.122Z,12.80
2019-04-05T20:09:39.482Z,12.80
2019-04-05T20:12:10.213Z,12.80
2019-04-05T20:14:40.826Z,12.70
2019-04-05T20:17:11.622Z,12.70
2019-04-05T20:19:42.067Z,12.70
2019-04-05T20:22:12.542Z,12.60
2019-04-05T20:24:44.126Z,12.60
2019-04-05T20:27:14.500Z,12.50
2019-04-05T20:29:44.888Z,12.50
2019-04-05T20:32:15.355Z,12.50
2019-04-05T20:34:45.771Z,12.40
2019-04-05T20:37:16.144Z,12.40
2019-04-05T20:39:46.578Z,12.40
2019-04-05T20:42:17.646Z,12.30
2019-04-05T20:44:48.288Z,12.30
2019-04-05T20:47:18.928Z,12.30
2019-04-05T20:49:50.550Z,12.20
2019-04-05T20:52:21.624Z,12.20
2019-04-05T20:54:52.071Z,12.10
2019-04-05T20:57:22.735Z,12.00
2019-04-05T20:59:53.144Z,12.00
2019-04-05T21:02:23.612Z,12.00
2019-04-05T21:04:54.016Z,11.90
2019-04-05T21:07:24.362Z,11.90
2019-04-05T21:09:54.948Z,11.90
2019-04-05T21:12:25.315Z,11.80
2019-04-05T21:14:55.751Z,11.80
2019-04-05T21:17:26.113Z,11.80
2019-04-05T21:19:56.473Z,11.80
2019-04-05T21:22:26.813Z,11.70
2019-04-05T21:24:57.282Z,11.70
2019-04-05T21:27:27.632Z,11.80
2019-04-05T21:29:58.086Z,11.80
2019-04-05T21:32:28.540Z,11.80
2019-04-05T21:34:58.908Z,11.80
2019-04-05T21:37:30.226Z,11.80
2019-04-05T21:40:00.677Z,11.80
2019-04-05T21:42:31.002Z,11.80
2019-04-05T21:45:01.423Z,11.70
2019-04-05T21:47:31.730Z,11.70
2019-04-05T21:50:02.260Z,11.70
2019-04-05T21:52:32.582Z,11.70
2019-04-05T21:55:02.971Z,11.70
2019-04-05T21:57:33.369Z,11.70
2019-04-05T22:00:04.680Z,11.70
2019-04-05T22:02:36.355Z,11.70
2019-04-05T22:05:07.567Z,11.60
2019-04-05T22:07:37.924Z,11.60
2019-04-05T22:10:10.136Z,11.50
2019-04-05T22:12:40.492Z,11.50
2019-04-05T22:15:10.989Z,11.50
2019-04-05T22:17:41.730Z,11.40
2019-04-05T22:20:12.119Z,11.40
2019-04-05T22:22:42.873Z,11.40
2019-04-05T22:25:13.254Z,11.40
2019-04-05T22:27:43.912Z,11.40
2019-04-05T22:30:14.632Z,11.40
2019-04-05T22:32:44.995Z,11.40
2019-04-05T22:35:15.462Z,11.30
2019-04-05T22:37:45.878Z,11.30
2019-04-05T22:40:16.367Z,11.30
2019-04-05T22:42:46.928Z,11.30
2019-04-05T22:45:17.288Z,11.20
2019-04-05T22:47:47.778Z,11.20
2019-04-05T22:50:18.178Z,11.20
2019-04-05T22:52:48.504Z,11.20
2019-04-05T22:55:18.890Z,11.20
2019-04-05T22:57:49.420Z,11.20
2019-04-05T23:00:20.273Z,11.10
2019-04-05T23:02:52.308Z,11.10
2019-04-05T23:05:23.751Z,11.10
2019-04-05T23:07:54.118Z,11.10
2019-04-05T23:10:24.694Z,11.00
2019-04-05T23:12:55.026Z,11.00
2019-04-05T23:15:25.424Z,11.00
2019-04-05T23:17:55.769Z,11.00
2019-04-05T23:20:26.172Z,10.90
2019-04-05T23:22:56.582Z,10.90
2019-04-05T23:25:26.928Z,10.90
2019-04-05T23:27:57.384Z,10.90
2019-04-05T23:30:28.470Z,10.90
2019-04-05T23:32:58.908Z,10.80
2019-04-05T23:35:29.287Z,10.80
2019-04-05T23:37:59.690Z,10.80
2019-04-05T23:40:29.978Z,10.80
2019-04-05T23:43:00.361Z,10.70
2019-04-05T23:45:31.160Z,10.70
2019-04-05T23:48:01.616Z,10.70
2019-04-05T23:50:31.956Z,10.70
2019-04-05T23:53:02.327Z,10.70
2019-04-05T23:55:33.755Z,10.60
2019-04-05T23:58:04.546Z,10.60
